sensor_id;sensor_type;location;lat;lon;timestamp;temperature;humidity
1021;DHT22;499;42.648;23.270;2023-08-24T00:01:59;22.70;24.00
1021;DHT22;499;42.648;23.270;2023-08-24T00:04:26;22.70;24.50
1021;DHT22;499;42.648;23.270;2023-08-24T00:06:53;22.70;24.20
1021;DHT22;499;42.648;23.270;2023-08-24T00:09:20;22.70;24.10
1021;DHT22;499;42.648;23.270;2023-08-24T00:11:47;22.70;24.00
1021;DHT22;499;42.648;23.270;2023-08-24T00:14:14;22.70;24.20
1021;DHT22;499;42.648;23.270;2023-08-24T00:16:41;22.60;24.60
1021;DHT22;499;42.648;23.270;2023-08-24T00:19:10;22.60;24.70
1021;DHT22;499;42.648;23.270;2023-08-24T00:21:37;22.50;24.90
1021;DHT22;499;42.648;23.270;2023-08-24T00:24:04;22.50;25.10
1021;DHT22;499;42.648;23.270;2023-08-24T00:26:31;22.50;24.80
1021;DHT22;499;42.648;23.270;2023-08-24T00:28:58;22.60;24.60
1021;DHT22;499;42.648;23.270;2023-08-24T00:31:26;22.60;24.50
1021;DHT22;499;42.648;23.270;2023-08-24T00:33:53;22.60;24.50
1021;DHT22;499;42.648;23.270;2023-08-24T00:36:21;22.50;25.00
1021;DHT22;499;42.648;23.270;2023-08-24T00:38:48;22.30;25.30
1021;DHT22;499;42.648;23.270;2023-08-24T00:41:17;22.30;25.40
1021;DHT22;499;42.648;23.270;2023-08-24T00:43:44;22.30;25.40
1021;DHT22;499;42.648;23.270;2023-08-24T00:46:12;22.20;25.90
1021;DHT22;499;42.648;23.270;2023-08-24T00:48:39;22.20;25.40
1021;DHT22;499;42.648;23.270;2023-08-24T00:51:06;22.20;25.10
1021;DHT22;499;42.648;23.270;2023-08-24T00:53:35;22.10;25.60
1021;DHT22;499;42.648;23.270;2023-08-24T00:56:03;22.00;26.60
1021;DHT22;499;42.648;23.270;2023-08-24T00:58:32;22.10;25.90
1021;DHT22;499;42.648;23.270;2023-08-24T01:01:00;22.00;25.90
1021;DHT22;499;42.648;23.270;2023-08-24T01:03:27;21.90;26.10
1021;DHT22;499;42.648;23.270;2023-08-24T01:05:54;21.80;26.70
1021;DHT22;499;42.648;23.270;2023-08-24T01:08:21;21.70;27.20
1021;DHT22;499;42.648;23.270;2023-08-24T01:10:58;21.80;27.30
1021;DHT22;499;42.648;23.270;2023-08-24T01:13:31;21.90;26.70
1021;DHT22;499;42.648;23.270;2023-08-24T01:16:04;21.80;26.70
1021;DHT22;499;42.648;23.270;2023-08-24T01:18:35;21.90;26.80
1021;DHT22;499;42.648;23.270;2023-08-24T01:21:03;22.00;26.50
1021;DHT22;499;42.648;23.270;2023-08-24T01:23:36;22.00;26.40
1021;DHT22;499;42.648;23.270;2023-08-24T01:26:10;22.00;26.60
1021;DHT22;499;42.648;23.270;2023-08-24T01:28:38;21.90;26.40
1021;DHT22;499;42.648;23.270;2023-08-24T01:31:05;21.80;26.70
1021;DHT22;499;42.648;23.270;2023-08-24T01:33:33;21.70;27.30
1021;DHT22;499;42.648;23.270;2023-08-24T01:36:00;21.60;27.60
1021;DHT22;499;42.648;23.270;2023-08-24T01:38:28;21.60;27.60
1021;DHT22;499;42.648;23.270;2023-08-24T01:41:01;21.70;27.80
1021;DHT22;499;42.648;23.270;2023-08-24T01:43:33;21.70;27.30
1021;DHT22;499;42.648;23.270;2023-08-24T01:46:04;21.80;27.30
1021;DHT22;499;42.648;23.270;2023-08-24T01:48:31;21.70;27.20
1021;DHT22;499;42.648;23.270;2023-08-24T01:51:00;21.60;27.20
1021;DHT22;499;42.648;23.270;2023-08-24T01:53:29;21.70;27.20
1021;DHT22;499;42.648;23.270;2023-08-24T01:55:56;21.70;27.20
1021;DHT22;499;42.648;23.270;2023-08-24T01:58:23;21.70;27.20
1021;DHT22;499;42.648;23.270;2023-08-24T02:00:59;21.60;27.20
1021;DHT22;499;42.648;23.270;2023-08-24T02:03:26;21.40;28.40
1021;DHT22;499;42.648;23.270;2023-08-24T02:05:53;21.40;28.80
1021;DHT22;499;42.648;23.270;2023-08-24T02:08:20;21.40;28.90
1021;DHT22;499;42.648;23.270;2023-08-24T02:10:47;21.40;29.00
1021;DHT22;499;42.648;23.270;2023-08-24T02:13:17;21.40;29.00
1021;DHT22;499;42.648;23.270;2023-08-24T02:15:44;21.30;29.60
1021;DHT22;499;42.648;23.270;2023-08-24T02:18:13;21.20;29.90
1021;DHT22;499;42.648;23.270;2023-08-24T02:20:40;21.20;30.00
1021;DHT22;499;42.648;23.270;2023-08-24T02:23:07;21.20;30.10
1021;DHT22;499;42.648;23.270;2023-08-24T02:25:34;21.20;29.70
1021;DHT22;499;42.648;23.270;2023-08-24T02:28:01;21.10;30.80
1021;DHT22;499;42.648;23.270;2023-08-24T02:30:28;21.00;30.70
1021;DHT22;499;42.648;23.270;2023-08-24T02:32:55;21.00;30.70
1021;DHT22;499;42.648;23.270;2023-08-24T02:35:24;21.10;30.80
1021;DHT22;499;42.648;23.270;2023-08-24T02:37:51;21.00;30.70
1021;DHT22;499;42.648;23.270;2023-08-24T02:40:20;21.00;31.40
1021;DHT22;499;42.648;23.270;2023-08-24T02:42:47;21.00;31.30
1021;DHT22;499;42.648;23.270;2023-08-24T02:45:14;20.90;32.50
1021;DHT22;499;42.648;23.270;2023-08-24T02:47:41;20.90;32.20
1021;DHT22;499;42.648;23.270;2023-08-24T02:50:09;21.00;31.80
1021;DHT22;499;42.648;23.270;2023-08-24T02:52:37;21.00;31.30
1021;DHT22;499;42.648;23.270;2023-08-24T02:55:05;21.00;31.30
1021;DHT22;499;42.648;23.270;2023-08-24T02:57:34;21.00;30.70
1021;DHT22;499;42.648;23.270;2023-08-24T03:00:02;21.00;30.60
1021;DHT22;499;42.648;23.270;2023-08-24T03:02:32;21.10;30.80
1021;DHT22;499;42.648;23.270;2023-08-24T03:04:59;21.10;30.80
1021;DHT22;499;42.648;23.270;2023-08-24T03:07:26;21.10;30.30
1021;DHT22;499;42.648;23.270;2023-08-24T03:09:54;21.10;30.70
1021;DHT22;499;42.648;23.270;2023-08-24T03:12:21;21.10;29.80
1021;DHT22;499;42.648;23.270;2023-08-24T03:14:51;21.10;30.00
1021;DHT22;499;42.648;23.270;2023-08-24T03:17:18;21.10;29.40
1021;DHT22;499;42.648;23.270;2023-08-24T03:19:45;21.10;29.50
1021;DHT22;499;42.648;23.270;2023-08-24T03:22:12;21.10;29.50
1021;DHT22;499;42.648;23.270;2023-08-24T03:24:39;21.10;30.50
1021;DHT22;499;42.648;23.270;2023-08-24T03:27:08;21.00;30.70
1021;DHT22;499;42.648;23.270;2023-08-24T03:29:34;20.90;32.60
1021;DHT22;499;42.648;23.270;2023-08-24T03:32:01;20.80;33.70
1021;DHT22;499;42.648;23.270;2023-08-24T03:34:28;20.90;32.90
1021;DHT22;499;42.648;23.270;2023-08-24T03:36:56;20.90;32.40
1021;DHT22;499;42.648;23.270;2023-08-24T03:39:24;20.80;33.40
1021;DHT22;499;42.648;23.270;2023-08-24T03:41:51;20.80;32.80
1021;DHT22;499;42.648;23.270;2023-08-24T03:44:19;20.80;32.50
1021;DHT22;499;42.648;23.270;2023-08-24T03:46:47;20.80;32.60
1021;DHT22;499;42.648;23.270;2023-08-24T03:49:14;20.80;33.00
1021;DHT22;499;42.648;23.270;2023-08-24T03:51:41;20.80;32.90
1021;DHT22;499;42.648;23.270;2023-08-24T03:54:08;20.70;33.30
1021;DHT22;499;42.648;23.270;2023-08-24T03:56:35;20.70;34.10
1021;DHT22;499;42.648;23.270;2023-08-24T03:59:02;20.80;33.40
1021;DHT22;499;42.648;23.270;2023-08-24T04:01:30;20.80;33.70
1021;DHT22;499;42.648;23.270;2023-08-24T04:03:57;20.90;33.10
1021;DHT22;499;42.648;23.270;2023-08-24T04:06:24;20.80;33.60
1021;DHT22;499;42.648;23.270;2023-08-24T04:08:51;20.90;33.10
1021;DHT22;499;42.648;23.270;2023-08-24T04:11:18;20.90;32.80
1021;DHT22;499;42.648;23.270;2023-08-24T04:13:45;20.90;32.70
1021;DHT22;499;42.648;23.270;2023-08-24T04:16:12;20.90;32.90
1021;DHT22;499;42.648;23.270;2023-08-24T04:18:40;21.00;32.60
1021;DHT22;499;42.648;23.270;2023-08-24T04:21:07;21.00;32.50
1021;DHT22;499;42.648;23.270;2023-08-24T04:23:34;21.00;32.70
1021;DHT22;499;42.648;23.270;2023-08-24T04:26:01;20.90;33.20
1021;DHT22;499;42.648;23.270;2023-08-24T04:28:30;21.00;33.20
1021;DHT22;499;42.648;23.270;2023-08-24T04:30:57;21.10;32.90
1021;DHT22;499;42.648;23.270;2023-08-24T04:33:24;21.10;32.50
1021;DHT22;499;42.648;23.270;2023-08-24T04:35:53;21.20;32.30
1021;DHT22;499;42.648;23.270;2023-08-24T04:38:20;21.10;32.40
1021;DHT22;499;42.648;23.270;2023-08-24T04:40:51;21.10;33.70
1021;DHT22;499;42.648;23.270;2023-08-24T04:43:18;21.20;33.60
1021;DHT22;499;42.648;23.270;2023-08-24T04:45:47;21.30;32.80
1021;DHT22;499;42.648;23.270;2023-08-24T04:48:14;21.50;33.50
1021;DHT22;499;42.648;23.270;2023-08-24T04:50:43;21.40;32.90
1021;DHT22;499;42.648;23.270;2023-08-24T04:53:12;21.50;32.90
1021;DHT22;499;42.648;23.270;2023-08-24T04:55:40;21.60;32.80
1021;DHT22;499;42.648;23.270;2023-08-24T04:58:07;21.60;32.40
1021;DHT22;499;42.648;23.270;2023-08-24T05:00:34;21.70;32.20
1021;DHT22;499;42.648;23.270;2023-08-24T05:03:01;21.70;31.80
1021;DHT22;499;42.648;23.270;2023-08-24T05:05:29;21.80;31.90
1021;DHT22;499;42.648;23.270;2023-08-24T05:07:56;21.70;32.90
1021;DHT22;499;42.648;23.270;2023-08-24T05:10:25;21.80;32.90
1021;DHT22;499;42.648;23.270;2023-08-24T05:12:52;21.80;33.70
1021;DHT22;499;42.648;23.270;2023-08-24T05:15:19;22.00;33.00
1021;DHT22;499;42.648;23.270;2023-08-24T05:17:46;22.10;31.90
1021;DHT22;499;42.648;23.270;2023-08-24T05:20:13;22.20;31.80
1021;DHT22;499;42.648;23.270;2023-08-24T05:22:40;22.40;32.00
1021;DHT22;499;42.648;23.270;2023-08-24T05:25:08;22.50;32.10
1021;DHT22;499;42.648;23.270;2023-08-24T05:27:37;22.70;31.60
1021;DHT22;499;42.648;23.270;2023-08-24T05:30:05;22.80;29.80
1021;DHT22;499;42.648;23.270;2023-08-24T05:32:32;22.90;29.40
1021;DHT22;499;42.648;23.270;2023-08-24T05:35:01;22.80;29.70
1021;DHT22;499;42.648;23.270;2023-08-24T05:37:28;22.60;30.00
1021;DHT22;499;42.648;23.270;2023-08-24T05:39:55;22.40;30.90
1021;DHT22;499;42.648;23.270;2023-08-24T05:42:22;22.10;31.70
1021;DHT22;499;42.648;23.270;2023-08-24T05:44:50;22.00;32.90
1021;DHT22;499;42.648;23.270;2023-08-24T05:47:17;22.20;32.60
1021;DHT22;499;42.648;23.270;2023-08-24T05:49:44;22.30;31.90
1021;DHT22;499;42.648;23.270;2023-08-24T05:52:11;22.50;32.10
1021;DHT22;499;42.648;23.270;2023-08-24T05:54:38;22.50;31.00
1021;DHT22;499;42.648;23.270;2023-08-24T05:57:05;22.70;31.10
1021;DHT22;499;42.648;23.270;2023-08-24T05:59:33;22.60;30.70
1021;DHT22;499;42.648;23.270;2023-08-24T06:02:03;22.90;30.70
1021;DHT22;499;42.648;23.270;2023-08-24T06:04:30;23.10;29.30
1021;DHT22;499;42.648;23.270;2023-08-24T06:06:57;23.10;29.10
1021;DHT22;499;42.648;23.270;2023-08-24T06:09:24;23.10;28.90
1021;DHT22;499;42.648;23.270;2023-08-24T06:11:51;23.10;30.00
1021;DHT22;499;42.648;23.270;2023-08-24T06:14:18;23.30;29.60
1021;DHT22;499;42.648;23.270;2023-08-24T06:16:45;23.60;28.50
1021;DHT22;499;42.648;23.270;2023-08-24T06:19:15;23.70;27.90
1021;DHT22;499;42.648;23.270;2023-08-24T06:21:42;23.80;27.00
1021;DHT22;499;42.648;23.270;2023-08-24T06:24:09;23.70;26.30
1021;DHT22;499;42.648;23.270;2023-08-24T06:26:36;23.70;26.40
1021;DHT22;499;42.648;23.270;2023-08-24T06:29:03;23.70;26.30
1021;DHT22;499;42.648;23.270;2023-08-24T06:31:30;23.70;25.20
1021;DHT22;499;42.648;23.270;2023-08-24T06:33:58;23.80;25.70
1021;DHT22;499;42.648;23.270;2023-08-24T06:36:27;24.20;25.50
1021;DHT22;499;42.648;23.270;2023-08-24T06:38:55;24.40;23.30
1021;DHT22;499;42.648;23.270;2023-08-24T06:41:23;24.50;23.20
1021;DHT22;499;42.648;23.270;2023-08-24T06:43:50;24.60;23.20
1021;DHT22;499;42.648;23.270;2023-08-24T06:46:19;24.80;22.80
1021;DHT22;499;42.648;23.270;2023-08-24T06:48:47;24.80;22.80
1021;DHT22;499;42.648;23.270;2023-08-24T06:51:14;24.80;23.20
1021;DHT22;499;42.648;23.270;2023-08-24T06:53:43;24.90;23.20
1021;DHT22;499;42.648;23.270;2023-08-24T06:56:13;25.00;23.10
1021;DHT22;499;42.648;23.270;2023-08-24T06:58:41;25.00;22.40
1021;DHT22;499;42.648;23.270;2023-08-24T07:01:08;25.00;21.90
1021;DHT22;499;42.648;23.270;2023-08-24T07:03:36;24.80;22.40
1021;DHT22;499;42.648;23.270;2023-08-24T07:06:05;24.80;22.50
1021;DHT22;499;42.648;23.270;2023-08-24T07:08:33;24.80;22.50
1021;DHT22;499;42.648;23.270;2023-08-24T07:11:01;24.90;23.00
1021;DHT22;499;42.648;23.270;2023-08-24T07:13:28;25.00;21.50
1021;DHT22;499;42.648;23.270;2023-08-24T07:15:55;25.20;22.40
1021;DHT22;499;42.648;23.270;2023-08-24T07:18:22;25.30;21.70
1021;DHT22;499;42.648;23.270;2023-08-24T07:20:49;25.40;21.70
1021;DHT22;499;42.648;23.270;2023-08-24T07:23:16;25.60;21.80
1021;DHT22;499;42.648;23.270;2023-08-24T07:25:43;25.80;21.90
1021;DHT22;499;42.648;23.270;2023-08-24T07:28:11;25.90;21.90
1021;DHT22;499;42.648;23.270;2023-08-24T07:30:38;26.00;20.80
1021;DHT22;499;42.648;23.270;2023-08-24T07:33:05;26.00;20.30
1021;DHT22;499;42.648;23.270;2023-08-24T07:35:33;26.10;20.10
1021;DHT22;499;42.648;23.270;2023-08-24T07:38:00;26.10;20.80
1021;DHT22;499;42.648;23.270;2023-08-24T07:40:27;26.20;20.30
1021;DHT22;499;42.648;23.270;2023-08-24T07:42:54;26.20;20.20
1021;DHT22;499;42.648;23.270;2023-08-24T07:45:23;26.10;19.90
1021;DHT22;499;42.648;23.270;2023-08-24T07:47:50;26.20;19.70
1021;DHT22;499;42.648;23.270;2023-08-24T07:50:17;26.30;19.80
1021;DHT22;499;42.648;23.270;2023-08-24T07:52:44;26.30;19.70
1021;DHT22;499;42.648;23.270;2023-08-24T07:55:11;26.40;19.70
1021;DHT22;499;42.648;23.270;2023-08-24T07:57:38;26.50;19.60
1021;DHT22;499;42.648;23.270;2023-08-24T08:00:06;26.70;19.20
1021;DHT22;499;42.648;23.270;2023-08-24T08:02:36;26.90;19.10
1021;DHT22;499;42.648;23.270;2023-08-24T08:05:04;27.10;18.10
1021;DHT22;499;42.648;23.270;2023-08-24T08:07:32;27.20;18.00
1021;DHT22;499;42.648;23.270;2023-08-24T08:09:59;27.30;17.50
1021;DHT22;499;42.648;23.270;2023-08-24T08:12:27;27.30;16.90
1021;DHT22;499;42.648;23.270;2023-08-24T08:14:55;27.40;16.80
1021;DHT22;499;42.648;23.270;2023-08-24T08:17:25;27.40;16.50
1021;DHT22;499;42.648;23.270;2023-08-24T08:19:56;27.50;15.70
1021;DHT22;499;42.648;23.270;2023-08-24T08:22:23;27.60;14.60
1021;DHT22;499;42.648;23.270;2023-08-24T08:24:52;27.60;14.60
1021;DHT22;499;42.648;23.270;2023-08-24T08:27:22;27.50;14.60
1021;DHT22;499;42.648;23.270;2023-08-24T08:29:52;27.50;14.60
1021;DHT22;499;42.648;23.270;2023-08-24T08:32:20;27.60;14.30
1021;DHT22;499;42.648;23.270;2023-08-24T08:34:48;27.70;13.30
1021;DHT22;499;42.648;23.270;2023-08-24T08:37:17;27.90;13.20
1021;DHT22;499;42.648;23.270;2023-08-24T08:39:44;28.10;13.40
1021;DHT22;499;42.648;23.270;2023-08-24T08:42:13;28.30;13.20
1021;DHT22;499;42.648;23.270;2023-08-24T08:44:42;28.30;13.40
1021;DHT22;499;42.648;23.270;2023-08-24T08:47:13;28.40;13.00
1021;DHT22;499;42.648;23.270;2023-08-24T08:49:43;28.50;13.10
1021;DHT22;499;42.648;23.270;2023-08-24T08:52:12;28.60;13.30
1021;DHT22;499;42.648;23.270;2023-08-24T08:54:47;28.70;12.00
1021;DHT22;499;42.648;23.270;2023-08-24T08:57:17;28.60;11.60
1021;DHT22;499;42.648;23.270;2023-08-24T08:59:46;28.50;12.20
1021;DHT22;499;42.648;23.270;2023-08-24T09:02:19;28.60;12.30
1021;DHT22;499;42.648;23.270;2023-08-24T09:04:47;28.80;12.60
1021;DHT22;499;42.648;23.270;2023-08-24T09:07:15;28.80;11.80
1021;DHT22;499;42.648;23.270;2023-08-24T09:09:44;28.90;11.60
1021;DHT22;499;42.648;23.270;2023-08-24T09:12:11;29.00;11.30
1021;DHT22;499;42.648;23.270;2023-08-24T09:14:38;29.20;11.20
1021;DHT22;499;42.648;23.270;2023-08-24T09:17:05;29.40;10.80
1021;DHT22;499;42.648;23.270;2023-08-24T09:19:33;29.60;11.00
1021;DHT22;499;42.648;23.270;2023-08-24T09:22:02;29.70;10.60
1021;DHT22;499;42.648;23.270;2023-08-24T09:24:30;29.90;10.00
1021;DHT22;499;42.648;23.270;2023-08-24T09:26:59;30.00;9.70
1021;DHT22;499;42.648;23.270;2023-08-24T09:29:26;29.90;10.00
1021;DHT22;499;42.648;23.270;2023-08-24T09:31:54;30.10;9.40
1021;DHT22;499;42.648;23.270;2023-08-24T09:34:23;30.30;9.00
1021;DHT22;499;42.648;23.270;2023-08-24T09:36:52;30.30;9.20
1021;DHT22;499;42.648;23.270;2023-08-24T09:39:19;30.40;9.30
1021;DHT22;499;42.648;23.270;2023-08-24T09:41:48;30.60;8.10
1021;DHT22;499;42.648;23.270;2023-08-24T09:44:17;30.50;8.10
1021;DHT22;499;42.648;23.270;2023-08-24T09:46:44;30.50;7.70
1021;DHT22;499;42.648;23.270;2023-08-24T09:49:11;30.60;8.80
1021;DHT22;499;42.648;23.270;2023-08-24T09:51:40;30.60;7.80
1021;DHT22;499;42.648;23.270;2023-08-24T09:54:08;30.50;7.70
1021;DHT22;499;42.648;23.270;2023-08-24T09:56:37;30.40;7.70
1021;DHT22;499;42.648;23.270;2023-08-24T09:59:10;30.40;7.70
1021;DHT22;499;42.648;23.270;2023-08-24T10:01:41;30.60;7.80
1021;DHT22;499;42.648;23.270;2023-08-24T10:04:09;30.70;7.80
1021;DHT22;499;42.648;23.270;2023-08-24T10:06:38;30.80;7.00
1021;DHT22;499;42.648;23.270;2023-08-24T10:09:07;30.90;7.10
1021;DHT22;499;42.648;23.270;2023-08-24T10:11:39;31.20;7.20
1021;DHT22;499;42.648;23.270;2023-08-24T10:14:12;31.40;6.30
1021;DHT22;499;42.648;23.270;2023-08-24T10:16:43;31.50;5.50
1021;DHT22;499;42.648;23.270;2023-08-24T10:19:12;31.70;5.10
1021;DHT22;499;42.648;23.270;2023-08-24T10:21:39;31.50;5.00
1021;DHT22;499;42.648;23.270;2023-08-24T10:24:08;31.40;5.70
1021;DHT22;499;42.648;23.270;2023-08-24T10:26:36;31.60;5.60
1021;DHT22;499;42.648;23.270;2023-08-24T10:29:05;31.70;4.40
1021;DHT22;499;42.648;23.270;2023-08-24T10:31:33;32.00;4.10
1021;DHT22;499;42.648;23.270;2023-08-24T10:34:05;32.40;4.10
1021;DHT22;499;42.648;23.270;2023-08-24T10:36:32;32.80;2.30
1021;DHT22;499;42.648;23.270;2023-08-24T10:39:03;32.80;1.50
1021;DHT22;499;42.648;23.270;2023-08-24T10:41:46;32.30;2.00
1021;DHT22;499;42.648;23.270;2023-08-24T10:44:20;32.30;2.20
1021;DHT22;499;42.648;23.270;2023-08-24T10:47:06;32.00;2.40
1021;DHT22;499;42.648;23.270;2023-08-24T10:49:34;32.10;2.00
1021;DHT22;499;42.648;23.270;2023-08-24T10:52:20;31.80;1.90
1021;DHT22;499;42.648;23.270;2023-08-24T10:54:48;31.70;2.50
1021;DHT22;499;42.648;23.270;2023-08-24T10:57:23;31.70;2.90
1021;DHT22;499;42.648;23.270;2023-08-24T11:00:04;31.80;3.70
1021;DHT22;499;42.648;23.270;2023-08-24T11:02:42;31.90;3.00
1021;DHT22;499;42.648;23.270;2023-08-24T11:05:18;31.80;2.50
1021;DHT22;499;42.648;23.270;2023-08-24T11:07:51;31.60;3.30
1021;DHT22;499;42.648;23.270;2023-08-24T11:10:19;30.90;6.80
1021;DHT22;499;42.648;23.270;2023-08-24T11:13:09;30.30;7.60
1021;DHT22;499;42.648;23.270;2023-08-24T11:15:41;30.00;9.10
1021;DHT22;499;42.648;23.270;2023-08-24T11:18:20;29.90;9.60
1021;DHT22;499;42.648;23.270;2023-08-24T11:20:50;29.70;9.50
1021;DHT22;499;42.648;23.270;2023-08-24T11:23:19;29.50;8.90
1021;DHT22;499;42.648;23.270;2023-08-24T11:25:46;29.40;8.60
1021;DHT22;499;42.648;23.270;2023-08-24T11:28:17;29.40;8.30
1021;DHT22;499;42.648;23.270;2023-08-24T11:30:45;29.60;7.20
1021;DHT22;499;42.648;23.270;2023-08-24T11:33:13;29.80;7.40
1021;DHT22;499;42.648;23.270;2023-08-24T11:35:42;29.80;7.40
1021;DHT22;499;42.648;23.270;2023-08-24T11:38:11;29.80;7.10
1021;DHT22;499;42.648;23.270;2023-08-24T11:40:38;29.40;7.20
1021;DHT22;499;42.648;23.270;2023-08-24T11:43:05;29.20;7.00
1021;DHT22;499;42.648;23.270;2023-08-24T11:45:35;29.00;6.90
1021;DHT22;499;42.648;23.270;2023-08-24T11:48:03;28.90;6.80
1021;DHT22;499;42.648;23.270;2023-08-24T11:50:32;28.90;6.90
1021;DHT22;499;42.648;23.270;2023-08-24T11:53:00;29.00;7.30
1021;DHT22;499;42.648;23.270;2023-08-24T11:55:29;29.10;7.00
1021;DHT22;499;42.648;23.270;2023-08-24T11:57:56;29.10;6.60
1021;DHT22;499;42.648;23.270;2023-08-24T12:00:24;29.20;6.60
1021;DHT22;499;42.648;23.270;2023-08-24T12:02:52;29.40;6.80
1021;DHT22;499;42.648;23.270;2023-08-24T12:05:21;29.50;7.20
1021;DHT22;499;42.648;23.270;2023-08-24T12:07:48;29.50;7.50
1021;DHT22;499;42.648;23.270;2023-08-24T12:10:15;29.70;7.30
1021;DHT22;499;42.648;23.270;2023-08-24T12:12:44;29.70;7.30
1021;DHT22;499;42.648;23.270;2023-08-24T12:15:20;29.70;7.30
1021;DHT22;499;42.648;23.270;2023-08-24T12:17:47;29.80;7.40
1021;DHT22;499;42.648;23.270;2023-08-24T12:20:19;29.80;7.40
1021;DHT22;499;42.648;23.270;2023-08-24T12:22:53;29.90;7.40
1021;DHT22;499;42.648;23.270;2023-08-24T12:25:24;29.80;7.40
1021;DHT22;499;42.648;23.270;2023-08-24T12:27:53;29.80;6.80
1021;DHT22;499;42.648;23.270;2023-08-24T12:30:43;30.10;6.80
1021;DHT22;499;42.648;23.270;2023-08-24T12:33:21;30.40;5.80
1021;DHT22;499;42.648;23.270;2023-08-24T12:35:48;30.40;6.40
1021;DHT22;499;42.648;23.270;2023-08-24T12:38:15;30.10;6.20
1021;DHT22;499;42.648;23.270;2023-08-24T12:40:42;30.00;7.50
1021;DHT22;499;42.648;23.270;2023-08-24T12:43:10;30.10;7.50
1021;DHT22;499;42.648;23.270;2023-08-24T12:45:39;30.20;6.80
1021;DHT22;499;42.648;23.270;2023-08-24T12:48:06;30.40;6.70
1021;DHT22;499;42.648;23.270;2023-08-24T12:50:34;30.60;6.80
1021;DHT22;499;42.648;23.270;2023-08-24T12:53:01;30.80;5.70
1021;DHT22;499;42.648;23.270;2023-08-24T12:55:31;30.80;5.50
1021;DHT22;499;42.648;23.270;2023-08-24T12:57:59;30.70;6.10
1021;DHT22;499;42.648;23.270;2023-08-24T13:00:27;30.70;6.60
1021;DHT22;499;42.648;23.270;2023-08-24T13:02:54;30.60;6.60
1021;DHT22;499;42.648;23.270;2023-08-24T13:05:22;30.50;6.40
1021;DHT22;499;42.648;23.270;2023-08-24T13:07:49;30.30;6.40
1021;DHT22;499;42.648;23.270;2023-08-24T13:10:16;30.20;6.90
1021;DHT22;499;42.648;23.270;2023-08-24T13:12:43;30.10;6.50
1021;DHT22;499;42.648;23.270;2023-08-24T13:15:10;30.00;7.50
1021;DHT22;499;42.648;23.270;2023-08-24T13:17:39;30.00;7.50
1021;DHT22;499;42.648;23.270;2023-08-24T13:20:07;30.10;7.50
1021;DHT22;499;42.648;23.270;2023-08-24T13:22:34;30.20;6.60
1021;DHT22;499;42.648;23.270;2023-08-24T13:25:01;30.20;7.20
1021;DHT22;499;42.648;23.270;2023-08-24T13:27:28;30.30;7.60
1021;DHT22;499;42.648;23.270;2023-08-24T13:29:59;30.40;7.20
1021;DHT22;499;42.648;23.270;2023-08-24T13:32:26;30.30;7.60
1021;DHT22;499;42.648;23.270;2023-08-24T13:34:54;30.30;6.80
1021;DHT22;499;42.648;23.270;2023-08-24T13:37:22;30.30;7.60
1021;DHT22;499;42.648;23.270;2023-08-24T13:39:49;30.20;8.00
1021;DHT22;499;42.648;23.270;2023-08-24T13:42:16;30.00;9.30
1021;DHT22;499;42.648;23.270;2023-08-24T13:44:44;29.80;10.00
1021;DHT22;499;42.648;23.270;2023-08-24T13:47:12;29.80;9.90
1021;DHT22;499;42.648;23.270;2023-08-24T13:49:39;29.80;10.50
1021;DHT22;499;42.648;23.270;2023-08-24T13:52:07;29.80;10.40
1021;DHT22;499;42.648;23.270;2023-08-24T13:54:35;29.70;10.40
1021;DHT22;499;42.648;23.270;2023-08-24T13:57:02;29.60;10.60
1021;DHT22;499;42.648;23.270;2023-08-24T13:59:29;29.50;10.40
1021;DHT22;499;42.648;23.270;2023-08-24T14:01:56;29.60;10.70
1021;DHT22;499;42.648;23.270;2023-08-24T14:04:23;29.60;10.90
1021;DHT22;499;42.648;23.270;2023-08-24T14:06:50;29.70;10.90
1021;DHT22;499;42.648;23.270;2023-08-24T14:09:18;29.80;10.30
1021;DHT22;499;42.648;23.270;2023-08-24T14:11:45;29.90;10.10
1021;DHT22;499;42.648;23.270;2023-08-24T14:14:13;29.90;9.80
1021;DHT22;499;42.648;23.270;2023-08-24T14:16:40;29.90;9.10
1021;DHT22;499;42.648;23.270;2023-08-24T14:19:07;29.90;9.90
1021;DHT22;499;42.648;23.270;2023-08-24T14:21:34;29.80;9.70
1021;DHT22;499;42.648;23.270;2023-08-24T14:24:02;29.90;10.10
1021;DHT22;499;42.648;23.270;2023-08-24T14:26:30;29.90;10.30
1021;DHT22;499;42.648;23.270;2023-08-24T14:28:58;30.00;9.80
1021;DHT22;499;42.648;23.270;2023-08-24T14:31:26;30.00;10.20
1021;DHT22;499;42.648;23.270;2023-08-24T14:33:54;30.00;10.30
1021;DHT22;499;42.648;23.270;2023-08-24T14:36:21;29.40;10.40
1021;DHT22;499;42.648;23.270;2023-08-24T14:38:49;29.10;11.20
1021;DHT22;499;42.648;23.270;2023-08-24T14:41:17;28.90;11.10
1021;DHT22;499;42.648;23.270;2023-08-24T14:43:46;28.90;11.90
1021;DHT22;499;42.648;23.270;2023-08-24T14:46:13;29.00;12.10
1021;DHT22;499;42.648;23.270;2023-08-24T14:48:40;29.00;12.00
1021;DHT22;499;42.648;23.270;2023-08-24T14:51:07;28.90;11.50
1021;DHT22;499;42.648;23.270;2023-08-24T14:53:34;28.90;11.70
1021;DHT22;499;42.648;23.270;2023-08-24T14:56:01;28.90;11.40
1021;DHT22;499;42.648;23.270;2023-08-24T14:58:28;28.80;11.40
1021;DHT22;499;42.648;23.270;2023-08-24T15:00:57;28.90;11.70
1021;DHT22;499;42.648;23.270;2023-08-24T15:03:24;29.00;11.60
1021;DHT22;499;42.648;23.270;2023-08-24T15:05:58;29.10;11.60
1021;DHT22;499;42.648;23.270;2023-08-24T15:08:27;29.10;11.60
1021;DHT22;499;42.648;23.270;2023-08-24T15:10:55;29.30;11.40
1021;DHT22;499;42.648;23.270;2023-08-24T15:13:22;29.50;11.40
1021;DHT22;499;42.648;23.270;2023-08-24T15:15:49;29.60;10.70
1021;DHT22;499;42.648;23.270;2023-08-24T15:18:18;29.70;11.20
1021;DHT22;499;42.648;23.270;2023-08-24T15:20:45;29.60;10.40
1021;DHT22;499;42.648;23.270;2023-08-24T15:23:21;29.60;9.40
1021;DHT22;499;42.648;23.270;2023-08-24T15:25:48;29.80;10.20
1021;DHT22;499;42.648;23.270;2023-08-24T15:28:15;30.20;9.90
1021;DHT22;499;42.648;23.270;2023-08-24T15:30:42;30.50;10.00
1021;DHT22;499;42.648;23.270;2023-08-24T15:33:08;30.60;8.50
1021;DHT22;499;42.648;23.270;2023-08-24T15:35:39;30.40;9.10
1021;DHT22;499;42.648;23.270;2023-08-24T15:38:06;30.10;9.60
1021;DHT22;499;42.648;23.270;2023-08-24T15:40:33;30.00;10.10
1021;DHT22;499;42.648;23.270;2023-08-24T15:43:01;29.90;10.60
1021;DHT22;499;42.648;23.270;2023-08-24T15:45:29;29.70;10.80
1021;DHT22;499;42.648;23.270;2023-08-24T15:47:56;29.60;11.10
1021;DHT22;499;42.648;23.270;2023-08-24T15:50:24;29.50;11.40
1021;DHT22;499;42.648;23.270;2023-08-24T15:52:52;29.50;11.40
1021;DHT22;499;42.648;23.270;2023-08-24T15:55:24;29.50;11.60
1021;DHT22;499;42.648;23.270;2023-08-24T15:57:51;29.40;11.50
1021;DHT22;499;42.648;23.270;2023-08-24T16:00:18;29.40;11.40
1021;DHT22;499;42.648;23.270;2023-08-24T16:02:45;29.20;10.90
1021;DHT22;499;42.648;23.270;2023-08-24T16:05:13;29.10;11.60
1021;DHT22;499;42.648;23.270;2023-08-24T16:07:40;29.00;12.30
1021;DHT22;499;42.648;23.270;2023-08-24T16:10:10;28.70;12.70
1021;DHT22;499;42.648;23.270;2023-08-24T16:12:37;28.60;12.90
1021;DHT22;499;42.648;23.270;2023-08-24T16:15:05;28.30;13.20